sensor_id;sensor_type;location;lat;lon;timestamp;pressure;altitude;pressure_sealevel;temperature;humidity
62655;BME280;48717;55.556;37.816;2022-10-16T00:06:14;100558.53;;;2.19;76.07
62655;BME280;48717;55.556;37.816;2022-10-16T00:09:01;100603.69;;;2.39;77.04
62655;BME280;48717;55.556;37.816;2022-10-16T00:15:10;100701.88;;;2.81;77.53
62655;BME280;48717;55.556;37.816;2022-10-16T00:17:38;100708.75;;;2.79;77.12
62655;BME280;48717;55.556;37.816;2022-10-16T00:20:05;100674.88;;;2.59;77.40
62655;BME280;48717;55.556;37.816;2022-10-16T00:26:11;100626.50;;;2.25;77.68
62655;BME280;48717;55.556;37.816;2022-10-16T00:29:00;100568.03;;;1.79;77.37
62655;BME280;48717;55.556;37.816;2022-10-16T00:31:39;100638.69;;;2.26;77.64
62655;BME280;48717;55.556;37.816;2022-10-16T00:34:18;100596.81;;;2.02;78.04
62655;BME280;48717;55.556;37.816;2022-10-16T00:36:45;100647.31;;;2.25;77.97
62655;BME280;48717;55.556;37.816;2022-10-16T00:39:12;100648.94;;;2.23;77.81
62655;BME280;48717;55.556;37.816;2022-10-16T00:41:40;100705.16;;;2.57;78.02
62655;BME280;48717;55.556;37.816;2022-10-16T00:50:35;100571.75;;;1.66;78.68
62655;BME280;48717;55.556;37.816;2022-10-16T00:59:53;100544.44;;;1.38;79.40
62655;BME280;48717;55.556;37.816;2022-10-16T01:02:30;100677.97;;;2.13;79.19
62655;BME280;48717;55.556;37.816;2022-10-16T01:05:03;100623.31;;;1.75;79.46
62655;BME280;48717;55.556;37.816;2022-10-16T01:07:53;100652.56;;;1.89;79.74
62655;BME280;48717;55.556;37.816;2022-10-16T01:11:01;100712.38;;;2.25;79.72
62655;BME280;48717;55.556;37.816;2022-10-16T01:13:54;100612.47;;;1.65;80.15
62655;BME280;48717;55.556;37.816;2022-10-16T01:17:11;100718.25;;;2.21;79.66
62655;BME280;48717;55.556;37.816;2022-10-16T01:29:32;100535.59;;;0.98;80.11
62655;BME280;48717;55.556;37.816;2022-10-16T01:35:57;100645.16;;;1.60;80.21
62655;BME280;48717;55.556;37.816;2022-10-16T01:48:15;100551.03;;;0.95;80.16
62655;BME280;48717;55.556;37.816;2022-10-16T01:51:10;100527.63;;;0.76;80.84
62655;BME280;48717;55.556;37.816;2022-10-16T01:53:58;100671.00;;;1.57;81.09
62655;BME280;48717;55.556;37.816;2022-10-16T01:56:43;100701.22;;;1.73;81.17
62655;BME280;48717;55.556;37.816;2022-10-16T01:59:21;100740.38;;;1.94;81.02
62655;BME280;48717;55.556;37.816;2022-10-16T02:02:04;100624.00;;;1.17;80.63
62655;BME280;48717;55.556;37.816;2022-10-16T02:04:47;100653.75;;;1.41;81.44
62655;BME280;48717;55.556;37.816;2022-10-16T02:07:23;100641.25;;;1.34;81.59
62655;BME280;48717;55.556;37.816;2022-10-16T02:09:53;100666.38;;;1.51;81.12
62655;BME280;48717;55.556;37.816;2022-10-16T02:12:33;100723.06;;;1.77;81.46
62655;BME280;48717;55.556;37.816;2022-10-16T02:15:03;100598.44;;;1.09;81.00
62655;BME280;48717;55.556;37.816;2022-10-16T02:17:30;100746.03;;;1.86;81.45
62655;BME280;48717;55.556;37.816;2022-10-16T02:19:58;100743.22;;;1.81;81.82
62655;BME280;48717;55.556;37.816;2022-10-16T02:22:37;100720.09;;;1.69;81.50
62655;BME280;48717;55.556;37.816;2022-10-16T02:25:33;100597.38;;;0.87;81.98
62655;BME280;48717;55.556;37.816;2022-10-16T02:28:03;100740.53;;;1.79;81.78
62655;BME280;48717;55.556;37.816;2022-10-16T02:30:37;100754.34;;;1.78;81.88
62655;BME280;48717;55.556;37.816;2022-10-16T02:33:09;100654.44;;;1.20;81.70
62655;BME280;48717;55.556;37.816;2022-10-16T02:35:38;100641.81;;;1.10;81.98
62655;BME280;48717;55.556;37.816;2022-10-16T02:38:06;100661.56;;;1.24;81.69
62655;BME280;48717;55.556;37.816;2022-10-16T02:40:40;100760.09;;;1.71;81.52
62655;BME280;48717;55.556;37.816;2022-10-16T02:43:08;100682.44;;;1.26;82.03
62655;BME280;48717;55.556;37.816;2022-10-16T02:45:36;100631.69;;;0.98;81.79
62655;BME280;48717;55.556;37.816;2022-10-16T02:48:08;100730.53;;;1.52;81.93
62655;BME280;48717;55.556;37.816;2022-10-16T02:50:50;100675.88;;;1.16;82.13
62655;BME280;48717;55.556;37.816;2022-10-16T02:53:37;100765.94;;;1.67;81.69
62655;BME280;48717;55.556;37.816;2022-10-16T02:56:20;100683.19;;;1.23;81.94
62655;BME280;48717;55.556;37.816;2022-10-16T02:58:57;100749.63;;;1.53;82.39
62655;BME280;48717;55.556;37.816;2022-10-16T03:01:34;100657.81;;;1.01;82.24
62655;BME280;48717;55.556;37.816;2022-10-16T03:05:24;100731.13;;;1.47;82.51
62655;BME280;48717;55.556;37.816;2022-10-16T03:07:59;100753.44;;;1.60;81.72
62655;BME280;48717;55.556;37.816;2022-10-16T03:10:35;100766.50;;;1.61;81.70
62655;BME280;48717;55.556;37.816;2022-10-16T03:13:03;100760.41;;;1.61;82.29
62655;BME280;48717;55.556;37.816;2022-10-16T03:15:30;100746.75;;;1.47;81.89
62655;BME280;48717;55.556;37.816;2022-10-16T03:17:58;100762.94;;;1.59;82.10
62655;BME280;48717;55.556;37.816;2022-10-16T03:20:26;100657.41;;;0.93;81.77
62655;BME280;48717;55.556;37.816;2022-10-16T03:22:53;100756.22;;;1.46;82.19
62655;BME280;48717;55.556;37.816;2022-10-16T03:25:21;100786.28;;;1.58;82.24
62655;BME280;48717;55.556;37.816;2022-10-16T03:27:49;100761.44;;;1.46;82.13
62655;BME280;48717;55.556;37.816;2022-10-16T03:30:17;100770.19;;;1.48;82.05
62655;BME280;48717;55.556;37.816;2022-10-16T03:32:45;100770.50;;;1.54;82.20
62655;BME280;48717;55.556;37.816;2022-10-16T03:35:12;100745.38;;;1.37;81.97
62655;BME280;48717;55.556;37.816;2022-10-16T03:37:41;100685.16;;;0.94;82.43
62655;BME280;48717;55.556;37.816;2022-10-16T03:40:10;100772.00;;;1.49;82.31
62655;BME280;48717;55.556;37.816;2022-10-16T03:42:42;100717.94;;;1.09;82.50
62655;BME280;48717;55.556;37.816;2022-10-16T03:45:14;100759.84;;;1.32;82.67
62655;BME280;48717;55.556;37.816;2022-10-16T03:47:43;100782.06;;;1.43;82.68
62655;BME280;48717;55.556;37.816;2022-10-16T03:50:10;100766.81;;;1.33;82.80
62655;BME280;48717;55.556;37.816;2022-10-16T03:52:38;100776.63;;;1.38;82.78
62655;BME280;48717;55.556;37.816;2022-10-16T03:55:06;100778.50;;;1.41;83.05
62655;BME280;48717;55.556;37.816;2022-10-16T03:57:41;100711.22;;;0.96;82.83
62655;BME280;48717;55.556;37.816;2022-10-16T04:00:13;100695.06;;;0.85;82.78
62655;BME280;48717;55.556;37.816;2022-10-16T04:02:54;100672.69;;;0.70;83.12
62655;BME280;48717;55.556;37.816;2022-10-16T04:05:37;100789.53;;;1.37;83.00
62655;BME280;48717;55.556;37.816;2022-10-16T04:08:05;100793.84;;;1.36;82.73
62655;BME280;48717;55.556;37.816;2022-10-16T04:10:32;100617.22;;;0.35;83.14
62655;BME280;48717;55.556;37.816;2022-10-16T04:13:00;100784.19;;;1.34;82.84
62655;BME280;48717;55.556;37.816;2022-10-16T04:15:28;100769.06;;;1.26;83.04
62655;BME280;48717;55.556;37.816;2022-10-16T04:18:03;100690.53;;;0.81;83.10
62655;BME280;48717;55.556;37.816;2022-10-16T04:21:01;100652.56;;;0.66;82.18
62655;BME280;48717;55.556;37.816;2022-10-16T04:23:30;100789.53;;;1.53;81.89
62655;BME280;48717;55.556;37.816;2022-10-16T04:26:02;100767.94;;;1.38;81.90
62655;BME280;48717;55.556;37.816;2022-10-16T04:28:36;100658.56;;;0.82;81.43
62655;BME280;48717;55.556;37.816;2022-10-16T04:31:04;100744.31;;;1.33;81.43
62655;BME280;48717;55.556;37.816;2022-10-16T04:33:34;100611.59;;;0.60;80.79
62655;BME280;48717;55.556;37.816;2022-10-16T04:36:16;100648.81;;;0.77;80.96
62655;BME280;48717;55.556;37.816;2022-10-16T04:38:43;100778.50;;;1.41;81.51
62655;BME280;48717;55.556;37.816;2022-10-16T04:41:11;100750.88;;;1.26;81.63
62655;BME280;48717;55.556;37.816;2022-10-16T04:43:53;100756.91;;;1.25;81.72
62655;BME280;48717;55.556;37.816;2022-10-16T04:46:42;100671.06;;;0.72;81.82
62655;BME280;48717;55.556;37.816;2022-10-16T04:49:21;100682.81;;;0.82;82.03
62655;BME280;48717;55.556;37.816;2022-10-16T04:52:03;100808.69;;;1.55;81.77
62655;BME280;48717;55.556;37.816;2022-10-16T04:54:52;100623.53;;;0.57;81.58
62655;BME280;48717;55.556;37.816;2022-10-16T04:57:43;100705.94;;;0.94;81.57
62655;BME280;48717;55.556;37.816;2022-10-16T05:00:16;100791.63;;;1.44;81.51
62655;BME280;48717;55.556;37.816;2022-10-16T05:29:23;100721.78;;;1.68;79.22
62655;BME280;48717;55.556;37.816;2022-10-16T05:32:33;100670.41;;;1.63;77.73
62655;BME280;48717;55.556;37.816;2022-10-16T05:35:49;100632.94;;;1.59;76.97
62655;BME280;48717;55.556;37.816;2022-10-16T05:38:37;100819.16;;;3.01;75.74
62655;BME280;48717;55.556;37.816;2022-10-16T05:41:06;100766.72;;;2.95;73.98
62655;BME280;48717;55.556;37.816;2022-10-16T05:43:33;100780.63;;;3.13;73.69
62655;BME280;48717;55.556;37.816;2022-10-16T05:46:04;100795.81;;;3.63;71.59
62655;BME280;48717;55.556;37.816;2022-10-16T05:48:43;100828.94;;;4.07;70.39
62655;BME280;48717;55.556;37.816;2022-10-16T05:51:34;100737.72;;;3.68;69.34
62655;BME280;48717;55.556;37.816;2022-10-16T05:54:29;100755.97;;;3.89;69.21
62655;BME280;48717;55.556;37.816;2022-10-16T05:57:09;100711.78;;;3.71;68.64
62655;BME280;48717;55.556;37.816;2022-10-16T05:59:50;100720.44;;;3.92;67.24
62655;BME280;48717;55.556;37.816;2022-10-16T06:02:47;100650.56;;;3.62;67.24
62655;BME280;48717;55.556;37.816;2022-10-16T06:05:25;100696.69;;;4.08;66.43
62655;BME280;48717;55.556;37.816;2022-10-16T06:08:08;100767.03;;;4.72;65.47
62655;BME280;48717;55.556;37.816;2022-10-16T06:11:37;100709.19;;;4.38;64.00
62655;BME280;48717;55.556;37.816;2022-10-16T06:14:57;100660.34;;;4.35;63.82
62655;BME280;48717;55.556;37.816;2022-10-16T06:17:40;100677.50;;;4.28;63.52
62655;BME280;48717;55.556;37.816;2022-10-16T06:20:19;100669.38;;;4.21;63.49
62655;BME280;48717;55.556;37.816;2022-10-16T06:23:07;100827.63;;;5.56;63.06
62655;BME280;48717;55.556;37.816;2022-10-16T06:25:52;100664.88;;;4.64;62.15
62655;BME280;48717;55.556;37.816;2022-10-16T06:32:11;100829.03;;;6.22;60.54
62655;BME280;48717;55.556;37.816;2022-10-16T06:34:48;100777.22;;;6.12;60.43
62655;BME280;48717;55.556;37.816;2022-10-16T06:37:53;100764.41;;;6.21;59.03
62655;BME280;48717;55.556;37.816;2022-10-16T06:41:59;100671.25;;;5.74;58.16
62655;BME280;48717;55.556;37.816;2022-10-16T06:45:02;100768.09;;;6.56;58.33
62655;BME280;48717;55.556;37.816;2022-10-16T07:07:23;100774.75;;;7.35;55.53
62655;BME280;48717;55.556;37.816;2022-10-16T07:10:03;100701.94;;;7.61;55.18
62655;BME280;48717;55.556;37.816;2022-10-16T07:12:31;100823.84;;;8.42;54.02
62655;BME280;48717;55.556;37.816;2022-10-16T07:15:07;100717.88;;;7.69;53.63
62655;BME280;48717;55.556;37.816;2022-10-16T07:17:44;100783.13;;;8.24;53.48
62655;BME280;48717;55.556;37.816;2022-10-16T07:20:24;100758.50;;;8.19;53.10
62655;BME280;48717;55.556;37.816;2022-10-16T07:23:25;100670.72;;;7.72;52.71
62655;BME280;48717;55.556;37.816;2022-10-16T07:26:48;100783.19;;;8.64;52.25
62655;BME280;48717;55.556;37.816;2022-10-16T07:29:29;100777.88;;;9.03;51.01
62655;BME280;48717;55.556;37.816;2022-10-16T07:32:40;100847.59;;;10.17;48.91
62655;BME280;48717;55.556;37.816;2022-10-16T07:35:18;100789.53;;;10.11;49.04
62655;BME280;48717;55.556;37.816;2022-10-16T07:47:41;100813.66;;;11.72;45.30
62655;BME280;48717;55.556;37.816;2022-10-16T07:50:09;100840.28;;;13.11;42.58
62655;BME280;48717;55.556;37.816;2022-10-16T07:52:36;100835.97;;;13.31;41.78
62655;BME280;48717;55.556;37.816;2022-10-16T07:55:04;100719.94;;;12.37;41.15
62655;BME280;48717;55.556;37.816;2022-10-16T07:57:32;100837.78;;;13.43;40.82
62655;BME280;48717;55.556;37.816;2022-10-16T08:00:00;100835.69;;;12.75;41.63
62655;BME280;48717;55.556;37.816;2022-10-16T08:02:38;100815.38;;;12.73;42.15
62655;BME280;48717;55.556;37.816;2022-10-16T08:05:17;100830.28;;;12.53;41.48
62655;BME280;48717;55.556;37.816;2022-10-16T08:21:55;100831.50;;;11.92;42.60
62655;BME280;48717;55.556;37.816;2022-10-16T08:24:23;100732.25;;;11.31;43.00
62655;BME280;48717;55.556;37.816;2022-10-16T08:26:50;100751.81;;;11.50;43.47
62655;BME280;48717;55.556;37.816;2022-10-16T08:29:29;100723.53;;;11.41;42.94
62655;BME280;48717;55.556;37.816;2022-10-16T09:00:12;100822.72;;;13.27;38.86
62655;BME280;48717;55.556;37.816;2022-10-16T09:27:02;100750.44;;;13.61;37.07
62655;BME280;48717;55.556;37.816;2022-10-16T09:29:54;100717.75;;;13.66;37.85
62655;BME280;48717;55.556;37.816;2022-10-16T09:32:26;100815.00;;;14.31;36.96
62655;BME280;48717;55.556;37.816;2022-10-16T09:35:15;100806.13;;;14.45;36.65
62655;BME280;48717;55.556;37.816;2022-10-16T09:37:59;100753.13;;;13.92;37.00
62655;BME280;48717;55.556;37.816;2022-10-16T09:40:40;100677.13;;;13.88;36.55
62655;BME280;48717;55.556;37.816;2022-10-16T09:46:27;100808.78;;;14.28;36.40
62655;BME280;48717;55.556;37.816;2022-10-16T09:49:27;100799.94;;;14.32;36.48
62655;BME280;48717;55.556;37.816;2022-10-16T09:52:24;100812.31;;;14.34;36.83
62655;BME280;48717;55.556;37.816;2022-10-16T09:54:54;100814.97;;;13.97;36.11
62655;BME280;48717;55.556;37.816;2022-10-16T09:57:22;100816.69;;;13.70;37.22
62655;BME280;48717;55.556;37.816;2022-10-16T09:59:52;100781.31;;;13.57;38.14
62655;BME280;48717;55.556;37.816;2022-10-16T10:02:35;100675.28;;;13.12;37.98
62655;BME280;48717;55.556;37.816;2022-10-16T10:05:17;100756.63;;;13.81;37.21
62655;BME280;48717;55.556;37.816;2022-10-16T10:07:56;100776.97;;;14.20;36.01
62655;BME280;48717;55.556;37.816;2022-10-16T10:10:27;100739.84;;;13.92;35.96
62655;BME280;48717;55.556;37.816;2022-10-16T10:12:55;100797.28;;;14.30;35.62
62655;BME280;48717;55.556;37.816;2022-10-16T10:15:24;100822.06;;;14.10;35.88
62655;BME280;48717;55.556;37.816;2022-10-16T10:17:56;100811.41;;;13.86;36.02
62655;BME280;48717;55.556;37.816;2022-10-16T10:20:29;100810.50;;;13.77;36.17
62655;BME280;48717;55.556;37.816;2022-10-16T10:23:20;100791.06;;;13.64;36.76
62655;BME280;48717;55.556;37.816;2022-10-16T10:26:11;100729.22;;;13.50;36.37
62655;BME280;48717;55.556;37.816;2022-10-16T10:32:29;100785.81;;;14.17;36.04
62655;BME280;48717;55.556;37.816;2022-10-16T10:35:15;100732.78;;;13.84;36.39
62655;BME280;48717;55.556;37.816;2022-10-16T10:40:28;100783.16;;;14.27;36.36
62655;BME280;48717;55.556;37.816;2022-10-16T10:45:59;100761.84;;;14.66;35.28
62655;BME280;48717;55.556;37.816;2022-10-16T10:48:50;100783.00;;;15.00;34.34
62655;BME280;48717;55.556;37.816;2022-10-16T10:54:26;100675.34;;;13.80;34.69
62655;BME280;48717;55.556;37.816;2022-10-16T10:57:08;100655.00;;;13.36;36.03
62655;BME280;48717;55.556;37.816;2022-10-16T11:00:17;100783.16;;;14.19;36.09
62655;BME280;48717;55.556;37.816;2022-10-16T11:05:54;100722.09;;;14.47;35.60
62655;BME280;48717;55.556;37.816;2022-10-16T11:08:36;100733.59;;;14.40;35.19
62655;BME280;48717;55.556;37.816;2022-10-16T11:11:20;100785.78;;;14.34;35.42
62655;BME280;48717;55.556;37.816;2022-10-16T11:14:04;100754.88;;;14.01;35.96
62655;BME280;48717;55.556;37.816;2022-10-16T11:16:44;100652.34;;;13.39;35.75
62655;BME280;48717;55.556;37.816;2022-10-16T11:19:31;100711.56;;;13.86;36.32
62655;BME280;48717;55.556;37.816;2022-10-16T11:22:19;100779.59;;;14.26;35.60
62655;BME280;48717;55.556;37.816;2022-10-16T11:25:13;100763.69;;;14.31;35.92
62655;BME280;48717;55.556;37.816;2022-10-16T11:27:47;100768.13;;;14.07;35.69
62655;BME280;48717;55.556;37.816;2022-10-16T11:30:24;100775.19;;;14.25;35.76
62655;BME280;48717;55.556;37.816;2022-10-16T11:35:46;100715.91;;;14.39;35.23
62655;BME280;48717;55.556;37.816;2022-10-16T11:38:29;100716.00;;;13.89;35.92
62655;BME280;48717;55.556;37.816;2022-10-16T11:41:26;100708.91;;;13.63;36.38
62655;BME280;48717;55.556;37.816;2022-10-16T11:44:20;100627.63;;;13.27;36.38
62655;BME280;48717;55.556;37.816;2022-10-16T11:55:54;100622.34;;;13.49;36.24
62655;BME280;48717;55.556;37.816;2022-10-16T12:04:14;100746.00;;;14.31;36.25
62655;BME280;48717;55.556;37.816;2022-10-16T12:06:48;100681.50;;;13.98;35.85
62655;BME280;48717;55.556;37.816;2022-10-16T12:09:29;100686.84;;;13.93;36.71
62655;BME280;48717;55.556;37.816;2022-10-16T12:11:58;100698.22;;;14.33;35.73
62655;BME280;48717;55.556;37.816;2022-10-16T12:16:56;100715.03;;;14.40;35.98
62655;BME280;48717;55.556;37.816;2022-10-16T12:19:28;100751.28;;;14.53;35.97
62655;BME280;48717;55.556;37.816;2022-10-16T12:21:58;100749.50;;;14.55;36.22
62655;BME280;48717;55.556;37.816;2022-10-16T12:26:54;100749.50;;;14.54;35.59
62655;BME280;48717;55.556;37.816;2022-10-16T12:31:53;100733.63;;;14.30;36.04
62655;BME280;48717;55.556;37.816;2022-10-16T12:34:32;100743.34;;;14.28;36.01
62655;BME280;48717;55.556;37.816;2022-10-16T12:37:23;100754.81;;;14.44;36.57
62655;BME280;48717;55.556;37.816;2022-10-16T12:39:55;100671.78;;;13.91;35.99
62655;BME280;48717;55.556;37.816;2022-10-16T12:42:33;100694.78;;;13.98;36.22
62655;BME280;48717;55.556;37.816;2022-10-16T12:45:01;100699.19;;;13.58;36.15
62655;BME280;48717;55.556;37.816;2022-10-16T12:47:49;100710.69;;;13.67;37.26
62655;BME280;48717;55.556;37.816;2022-10-16T12:50:34;100724.84;;;13.67;37.54
62655;BME280;48717;55.556;37.816;2022-10-16T12:53:04;100708.94;;;13.69;37.31
62655;BME280;48717;55.556;37.816;2022-10-16T12:55:42;100700.06;;;13.64;36.76
62655;BME280;48717;55.556;37.816;2022-10-16T13:17:32;100736.13;;;13.05;38.87
62655;BME280;48717;55.556;37.816;2022-10-16T13:23:00;100721.03;;;12.76;39.41
62655;BME280;48717;55.556;37.816;2022-10-16T13:28:31;100731.53;;;12.61;40.19
62655;BME280;48717;55.556;37.816;2022-10-16T13:31:01;100687.13;;;12.05;40.38
62655;BME280;48717;55.556;37.816;2022-10-16T13:33:44;100692.47;;;12.13;40.47
62655;BME280;48717;55.556;37.816;2022-10-16T13:36:24;100747.34;;;12.51;40.35
62655;BME280;48717;55.556;37.816;2022-10-16T13:39:19;100734.97;;;12.44;40.25
62655;BME280;48717;55.556;37.816;2022-10-16T13:42:07;100736.59;;;12.26;40.66
62655;BME280;48717;55.556;37.816;2022-10-16T13:45:00;100738.16;;;11.96;41.19
62655;BME280;48717;55.556;37.816;2022-10-16T13:47:29;100693.84;;;11.67;41.33
62655;BME280;48717;55.556;37.816;2022-10-16T13:50:06;100737.16;;;11.85;41.37
62655;BME280;48717;55.556;37.816;2022-10-16T13:52:34;100737.97;;;11.78;42.25
62655;BME280;48717;55.556;37.816;2022-10-16T13:55:02;100743.94;;;11.56;42.52
62655;BME280;48717;55.556;37.816;2022-10-16T13:57:30;100746.44;;;11.42;42.83
62655;BME280;48717;55.556;37.816;2022-10-16T13:59:59;100721.50;;;11.15;42.64
62655;BME280;48717;55.556;37.816;2022-10-16T14:02:33;100725.94;;;11.15;43.39
62655;BME280;48717;55.556;37.816;2022-10-16T14:05:04;100747.78;;;11.04;43.60
62655;BME280;48717;55.556;37.816;2022-10-16T14:07:36;100744.13;;;10.91;43.76
62655;BME280;48717;55.556;37.816;2022-10-16T14:10:18;100742.06;;;10.68;44.25
62655;BME280;48717;55.556;37.816;2022-10-16T14:12:55;100750.69;;;10.58;45.13
62655;BME280;48717;55.556;37.816;2022-10-16T14:15:22;100685.00;;;10.13;45.37
62655;BME280;48717;55.556;37.816;2022-10-16T14:17:51;100737.16;;;10.33;45.59
62655;BME280;48717;55.556;37.816;2022-10-16T14:20:23;100718.31;;;10.05;45.35
62655;BME280;48717;55.556;37.816;2022-10-16T14:23:04;100743.78;;;10.06;46.03
62655;BME280;48717;55.556;37.816;2022-10-16T14:25:32;100712.66;;;9.82;47.04
62655;BME280;48717;55.556;37.816;2022-10-16T14:30:52;100733.53;;;9.71;47.49
62655;BME280;48717;55.556;37.816;2022-10-16T14:33:22;100741.34;;;9.66;47.20
62655;BME280;48717;55.556;37.816;2022-10-16T14:36:12;100747.38;;;9.60;47.75
62655;BME280;48717;55.556;37.816;2022-10-16T14:38:43;100726.06;;;9.45;48.05
62655;BME280;48717;55.556;37.816;2022-10-16T14:41:22;100734.75;;;9.40;48.28
62655;BME280;48717;55.556;37.816;2022-10-16T14:43:53;100668.16;;;8.97;48.31
62655;BME280;48717;55.556;37.816;2022-10-16T14:46:28;100732.69;;;9.24;48.73
62655;BME280;48717;55.556;37.816;2022-10-16T14:51:39;100753.75;;;9.24;48.89
62655;BME280;48717;55.556;37.816;2022-10-16T14:54:13;100734.09;;;9.06;48.86
62655;BME280;48717;55.556;37.816;2022-10-16T14:56:56;100720.63;;;8.89;49.01
62655;BME280;48717;55.556;37.816;2022-10-16T14:59:33;100766.53;;;9.05;50.01
62655;BME280;48717;55.556;37.816;2022-10-16T15:02:20;100744.31;;;8.91;49.73
62655;BME280;48717;55.556;37.816;2022-10-16T15:04:49;100742.41;;;8.83;50.28
62655;BME280;48717;55.556;37.816;2022-10-16T15:07:17;100636.63;;;8.14;50.49
62655;BME280;48717;55.556;37.816;2022-10-16T15:09:44;100754.59;;;8.78;50.72
62655;BME280;48717;55.556;37.816;2022-10-16T15:12:15;100733.13;;;8.58;51.17
62655;BME280;48717;55.556;37.816;2022-10-16T15:14:43;100742.78;;;8.59;51.18
62655;BME280;48717;55.556;37.816;2022-10-16T15:17:11;100740.13;;;8.59;51.22
62655;BME280;48717;55.556;37.816;2022-10-16T15:19:41;100711.50;;;8.33;51.08
62655;BME280;48717;55.556;37.816;2022-10-16T15:22:10;100750.53;;;8.53;51.58
62655;BME280;48717;55.556;37.816;2022-10-16T15:24:37;100761.09;;;8.54;51.86
62655;BME280;48717;55.556;37.816;2022-10-16T15:27:05;100747.69;;;8.45;51.81
62655;BME280;48717;55.556;37.816;2022-10-16T15:29:33;100749.34;;;8.41;51.84
62655;BME280;48717;55.556;37.816;2022-10-16T15:32:00;100712.91;;;8.17;52.21
62655;BME280;48717;55.556;37.816;2022-10-16T15:34:27;100750.09;;;8.35;52.38
62655;BME280;48717;55.556;37.816;2022-10-16T15:36:54;100730.41;;;8.18;52.15
62655;BME280;48717;55.556;37.816;2022-10-16T15:39:24;100755.22;;;8.29;52.75
62655;BME280;48717;55.556;37.816;2022-10-16T15:41:51;100726.88;;;8.16;52.66
62655;BME280;48717;55.556;37.816;2022-10-16T15:44:21;100742.78;;;8.22;52.91
62655;BME280;48717;55.556;37.816;2022-10-16T15:46:54;100729.34;;;8.08;53.03
62655;BME280;48717;55.556;37.816;2022-10-16T15:49:22;100722.19;;;8.02;53.39
62655;BME280;48717;55.556;37.816;2022-10-16T15:51:49;100697.22;;;7.83;53.44
62655;BME280;48717;55.556;37.816;2022-10-16T15:54:18;100748.41;;;8.01;53.79
62655;BME280;48717;55.556;37.816;2022-10-16T15:56:48;100691.47;;;7.63;53.81
62655;BME280;48717;55.556;37.816;2022-10-16T15:59:15;100681.53;;;7.49;54.07
62655;BME280;48717;55.556;37.816;2022-10-16T16:01:43;100702.75;;;7.58;54.35
62655;BME280;48717;55.556;37.816;2022-10-16T16:04:10;100743.44;;;7.76;54.40
62655;BME280;48717;55.556;37.816;2022-10-16T16:06:58;100713.09;;;7.52;54.37
62655;BME280;48717;55.556;37.816;2022-10-16T16:09:25;100716.59;;;7.53;54.38
62655;BME280;48717;55.556;37.816;2022-10-16T16:11:53;100716.56;;;7.51;54.67
62655;BME280;48717;55.556;37.816;2022-10-16T16:14:20;100739.72;;;7.68;54.56
62655;BME280;48717;55.556;37.816;2022-10-16T16:16:48;100674.72;;;7.22;54.84
62655;BME280;48717;55.556;37.816;2022-10-16T16:19:16;100724.31;;;7.47;55.04
62655;BME280;48717;55.556;37.816;2022-10-16T16:21:48;100744.66;;;7.55;55.36
62655;BME280;48717;55.556;37.816;2022-10-16T16:24:19;100746.38;;;7.53;54.90
62655;BME280;48717;55.556;37.816;2022-10-16T16:26:46;100718.88;;;7.40;54.63
62655;BME280;48717;55.556;37.816;2022-10-16T16:29:15;100723.34;;;7.43;54.87
62655;BME280;48717;55.556;37.816;2022-10-16T16:31:43;100710.06;;;7.37;55.17
62655;BME280;48717;55.556;37.816;2022-10-16T16:34:11;100724.91;;;7.36;55.03
62655;BME280;48717;55.556;37.816;2022-10-16T16:36:40;100738.16;;;7.41;55.66
62655;BME280;48717;55.556;37.816;2022-10-16T16:39:08;100653.75;;;6.90;55.57
62655;BME280;48717;55.556;37.816;2022-10-16T16:41:35;100722.13;;;7.30;55.76
62655;BME280;48717;55.556;37.816;2022-10-16T16:44:08;100728.31;;;7.32;56.02
62655;BME280;48717;55.556;37.816;2022-10-16T16:46:38;100709.53;;;7.16;55.99
62655;BME280;48717;55.556;37.816;2022-10-16T16:49:08;100699.50;;;7.01;55.72
62655;BME280;48717;55.556;37.816;2022-10-16T16:51:37;100735.19;;;7.28;55.57
62655;BME280;48717;55.556;37.816;2022-10-16T16:54:07;100712.19;;;7.18;56.19
62655;BME280;48717;55.556;37.816;2022-10-16T16:56:36;100727.69;;;7.09;55.83
62655;BME280;48717;55.556;37.816;2022-10-16T16:59:05;100743.81;;;7.24;56.19
62655;BME280;48717;55.556;37.816;2022-10-16T17:01:33;100747.22;;;7.20;56.35
62655;BME280;48717;55.556;37.816;2022-10-16T17:04:02;100739.78;;;7.03;56.76
62655;BME280;48717;55.556;37.816;2022-10-16T17:06:40;100758.19;;;7.07;56.85
62655;BME280;48717;55.556;37.816;2022-10-16T17:09:09;100704.03;;;6.76;56.79
62655;BME280;48717;55.556;37.816;2022-10-16T17:11:39;100647.03;;;6.37;56.90
62655;BME280;48717;55.556;37.816;2022-10-16T17:14:11;100767.59;;;6.98;56.97
62655;BME280;48717;55.556;37.816;2022-10-16T17:16:39;100760.47;;;6.94;57.34
62655;BME280;48717;55.556;37.816;2022-10-16T17:19:16;100731.09;;;6.75;57.02
62655;BME280;48717;55.556;37.816;2022-10-16T17:21:47;100733.56;;;6.69;57.64
62655;BME280;48717;55.556;37.816;2022-10-16T17:24:15;100735.44;;;6.73;57.66
62655;BME280;48717;55.556;37.816;2022-10-16T17:26:49;100751.41;;;6.83;57.67
62655;BME280;48717;55.556;37.816;2022-10-16T17:29:18;100754.00;;;6.81;57.75
62655;BME280;48717;55.556;37.816;2022-10-16T17:31:47;100711.25;;;6.53;57.68
62655;BME280;48717;55.556;37.816;2022-10-16T17:34:18;100653.28;;;6.13;57.91
62655;BME280;48717;55.556;37.816;2022-10-16T17:36:47;100732.53;;;6.64;58.01
62655;BME280;48717;55.556;37.816;2022-10-16T17:39:16;100730.56;;;6.57;58.18
62655;BME280;48717;55.556;37.816;2022-10-16T17:41:52;100634.47;;;5.97;58.25
62655;BME280;48717;55.556;37.816;2022-10-16T17:44:20;100745.44;;;6.58;58.70
62655;BME280;48717;55.556;37.816;2022-10-16T17:46:52;100744.47;;;6.54;58.58